createdAt,value
2023-05-02T00:04:28.038Z,65.60
2023-05-02T00:09:30.490Z,66.70
2023-05-02T00:14:32.811Z,66.10
2023-05-02T00:19:40.034Z,66.30
2023-05-02T00:24:42.310Z,67.10
2023-05-02T00:29:44.576Z,65.90
2023-05-02T00:34:48.270Z,66.10
2023-05-02T00:39:50.543Z,67.20
2023-05-02T00:44:52.770Z,65.70
2023-05-02T00:49:56.497Z,65.60
2023-05-02T00:54:59.486Z,65.80
2023-05-02T01:00:02.204Z,65.60
2023-05-02T01:05:15.752Z,65.70
2023-05-02T01:10:30.702Z,66.90
2023-05-02T01:15:34.751Z,66.60
2023-05-02T01:20:42.795Z,65.80
2023-05-02T01:26:00.263Z,66.30
2023-05-02T01:31:05.387Z,67.10
2023-05-02T01:36:09.314Z,66.50
2023-05-02T01:41:12.228Z,66.00
2023-05-02T01:46:17.482Z,66.10
2023-05-02T01:51:21.898Z,66.20
2023-05-02T01:56:25.927Z,66.10
2023-05-02T02:01:30.605Z,66.00
2023-05-02T02:06:33.202Z,65.50
2023-05-02T02:11:37.531Z,65.30
2023-05-02T02:16:42.711Z,65.30
2023-05-02T02:21:48.458Z,65.20
2023-05-02T02:26:52.068Z,65.10
2023-05-02T02:31:55.804Z,64.90
2023-05-02T02:37:03.011Z,64.70
2023-05-02T02:42:13.046Z,64.60
2023-05-02T02:47:26.992Z,64.60
2023-05-02T02:52:40.569Z,64.50
2023-05-02T02:57:51.915Z,64.20
2023-05-02T03:02:56.594Z,64.10
2023-05-02T03:07:59.949Z,63.90
2023-05-02T03:13:02.208Z,63.90
2023-05-02T03:18:06.038Z,63.80
2023-05-02T03:23:08.354Z,64.10
2023-05-02T03:28:10.600Z,63.90
2023-05-02T03:33:14.368Z,64.00
2023-05-02T03:38:16.746Z,64.00
2023-05-02T03:43:18.937Z,63.70
2023-05-02T03:48:22.741Z,63.60
2023-05-02T03:53:25.081Z,63.70
2023-05-02T03:58:27.551Z,63.50
2023-05-02T04:03:31.386Z,63.30
2023-05-02T04:08:33.615Z,63.60
2023-05-02T04:13:35.760Z,63.50
2023-05-02T04:18:39.415Z,63.40
2023-05-02T04:23:41.640Z,63.40
2023-05-02T04:28:43.857Z,62.90
2023-05-02T04:33:47.452Z,62.80
2023-05-02T04:38:49.647Z,62.80
2023-05-02T04:43:51.878Z,62.70
2023-05-02T04:48:55.665Z,62.80
2023-05-02T04:53:57.959Z,62.80
2023-05-02T04:59:00.154Z,62.60
2023-05-02T05:04:04.362Z,62.50
2023-05-02T05:09:06.849Z,62.50
2023-05-02T05:14:09.000Z,62.20
2023-05-02T05:19:12.961Z,62.10
2023-05-02T05:24:15.355Z,61.90
2023-05-02T05:29:17.656Z,61.40
2023-05-02T05:34:21.423Z,61.00
2023-05-02T05:39:24.035Z,60.60
2023-05-02T05:44:26.379Z,60.60
2023-05-02T05:49:30.805Z,60.70
2023-05-02T05:54:32.950Z,60.70
2023-05-02T05:59:36.079Z,60.50
2023-05-02T06:04:39.713Z,60.40
2023-05-02T06:09:41.895Z,60.40
2023-05-02T06:14:44.212Z,60.40
2023-05-02T06:19:47.971Z,60.40
2023-05-02T06:24:50.193Z,60.50
2023-05-02T06:29:52.420Z,60.20
2023-05-02T06:34:56.079Z,59.90
2023-05-02T06:39:58.559Z,59.60
2023-05-02T06:45:01.084Z,59.50
2023-05-02T06:50:05.486Z,59.10
2023-05-02T06:55:09.596Z,58.80
2023-05-02T07:00:13.282Z,58.80
2023-05-02T07:05:17.105Z,58.50
2023-05-02T07:10:19.371Z,58.10
2023-05-02T07:15:21.646Z,58.40
2023-05-02T07:20:25.411Z,58.90
2023-05-02T07:25:27.680Z,60.00
2023-05-02T07:30:29.898Z,57.80
2023-05-02T07:35:33.595Z,54.60
2023-05-02T07:40:35.831Z,53.00
2023-05-02T07:45:38.140Z,53.20
2023-05-02T07:50:41.764Z,53.30
2023-05-02T07:55:44.184Z,53.70
2023-05-02T08:00:46.512Z,54.10
2023-05-02T08:05:51.740Z,54.40
2023-05-02T08:10:53.973Z,54.20
2023-05-02T08:15:56.232Z,53.00
2023-05-02T08:20:59.871Z,51.40
2023-05-02T08:26:02.108Z,50.10
2023-05-02T08:31:04.328Z,50.00
2023-05-02T08:36:13.879Z,49.90
2023-05-02T08:41:17.687Z,49.80
2023-05-02T08:46:23.718Z,50.30
2023-05-02T08:51:28.132Z,50.10
2023-05-02T08:56:30.556Z,50.40
2023-05-02T09:01:35.698Z,51.00
2023-05-02T09:06:39.423Z,51.70
2023-05-02T09:11:42.717Z,51.70
2023-05-02T09:16:45.191Z,52.20
2023-05-02T09:21:49.553Z,51.70
2023-05-02T09:27:00.172Z,51.90
2023-05-02T09:32:02.716Z,50.90
2023-05-02T09:37:06.548Z,50.30
2023-05-02T09:42:08.855Z,49.50
2023-05-02T09:47:11.223Z,49.80
2023-05-02T09:52:16.289Z,49.80
2023-05-02T09:57:18.970Z,49.60
2023-05-02T10:02:23.719Z,49.80
2023-05-02T10:07:28.436Z,49.30
2023-05-02T10:12:33.016Z,48.60
2023-05-02T10:17:42.383Z,47.80
2023-05-02T10:22:47.635Z,47.50
2023-05-02T10:27:50.089Z,48.20
2023-05-02T10:32:53.412Z,50.00
2023-05-02T10:37:58.694Z,49.50
2023-05-02T10:43:01.236Z,48.30
2023-05-02T10:48:22.101Z,47.30
2023-05-02T10:53:31.452Z,47.20
2023-05-02T10:58:33.846Z,47.50
2023-05-02T11:03:55.426Z,47.70
2023-05-02T11:09:36.175Z,47.50
2023-05-02T11:14:45.792Z,49.10
2023-05-02T11:20:24.750Z,50.70
2023-05-02T11:25:37.289Z,49.20
2023-05-02T11:30:44.282Z,48.30
2023-05-02T11:35:49.562Z,47.70
2023-05-02T11:41:02.387Z,47.70
2023-05-02T11:46:07.577Z,47.10
2023-05-02T11:51:09.953Z,47.10
2023-05-02T11:56:13.620Z,47.20
2023-05-02T12:01:16.540Z,47.20
2023-05-02T12:06:19.658Z,47.40
2023-05-02T12:11:24.701Z,47.80
2023-05-02T12:16:26.988Z,48.10
2023-05-02T12:21:30.119Z,48.20
2023-05-02T12:26:33.999Z,48.20
2023-05-02T12:31:36.450Z,48.20
2023-05-02T12:36:44.736Z,47.90
2023-05-02T12:41:48.704Z,47.60
2023-05-02T12:47:00.520Z,47.20
2023-05-02T12:52:02.876Z,47.20
2023-05-02T12:57:06.830Z,47.50
2023-05-02T13:02:09.276Z,48.10
2023-05-02T13:07:11.576Z,48.70
2023-05-02T13:12:15.204Z,48.90
2023-05-02T13:17:17.675Z,49.00
2023-05-02T13:22:20.066Z,49.10
2023-05-02T13:27:25.160Z,49.10
2023-05-02T13:32:27.834Z,49.20
2023-05-02T13:37:30.082Z,48.90
2023-05-02T13:42:33.872Z,49.10
2023-05-02T13:47:36.287Z,49.30
2023-05-02T13:52:38.771Z,49.70
2023-05-02T13:57:42.404Z,49.60
2023-05-02T14:02:44.978Z,49.70
2023-05-02T14:07:47.264Z,49.70
2023-05-02T14:12:50.961Z,49.30
2023-05-02T14:17:53.256Z,49.10
2023-05-02T14:22:55.526Z,49.00
2023-05-02T14:27:59.343Z,48.90
2023-05-02T14:33:01.734Z,48.80
2023-05-02T14:38:04.027Z,48.90
2023-05-02T14:43:07.727Z,48.90
2023-05-02T14:48:10.111Z,48.60
2023-05-02T14:53:12.452Z,48.50
2023-05-02T14:58:16.143Z,48.50
2023-05-02T15:03:18.643Z,48.40
2023-05-02T15:08:21.233Z,48.30
2023-05-02T15:13:25.007Z,48.20
2023-05-02T15:18:27.240Z,48.10
2023-05-02T15:23:29.559Z,48.10
2023-05-02T15:28:33.338Z,48.10
2023-05-02T15:33:35.594Z,48.20
2023-05-02T15:38:37.905Z,48.30
2023-05-02T15:43:41.615Z,48.20
2023-05-02T15:48:44.014Z,48.20
2023-05-02T15:53:46.272Z,48.30
2023-05-02T15:58:49.995Z,48.80
2023-05-02T16:03:52.368Z,49.10
2023-05-02T16:08:56.661Z,48.90
2023-05-02T16:14:00.458Z,49.10
2023-05-02T16:19:02.877Z,49.20
2023-05-02T16:24:05.491Z,49.00
2023-05-02T16:29:09.150Z,49.10
2023-05-02T16:34:11.511Z,49.30
2023-05-02T16:39:13.807Z,49.40
2023-05-02T16:44:17.454Z,49.30
2023-05-02T16:49:19.667Z,49.20
2023-05-02T16:54:21.990Z,49.30
2023-05-02T16:59:25.649Z,49.30
2023-05-02T17:04:27.820Z,49.20
2023-05-02T17:09:30.071Z,49.30
2023-05-02T17:14:33.961Z,49.30
2023-05-02T17:19:36.336Z,49.60
2023-05-02T17:24:38.713Z,49.40
2023-05-02T17:29:42.411Z,49.40
2023-05-02T17:34:44.691Z,49.60
2023-05-02T17:39:46.948Z,49.90
2023-05-02T17:44:52.091Z,50.20
2023-05-02T17:49:54.350Z,50.40
2023-05-02T17:54:56.685Z,50.30
2023-05-02T18:00:00.698Z,50.50
2023-05-02T18:05:03.709Z,50.70
2023-05-02T18:10:07.317Z,50.90
2023-05-02T18:15:11.131Z,51.00
2023-05-02T18:20:13.501Z,51.10
2023-05-02T18:25:15.886Z,51.10
2023-05-02T18:30:19.699Z,51.30
2023-05-02T18:35:22.120Z,51.50
2023-05-02T18:40:24.783Z,51.50
2023-05-02T18:45:28.421Z,51.60
2023-05-02T18:50:30.608Z,51.80
2023-05-02T18:55:33.099Z,51.80
2023-05-02T19:00:37.387Z,51.90
2023-05-02T19:05:39.980Z,52.10
2023-05-02T19:10:42.138Z,52.30
2023-05-02T19:15:45.872Z,52.50
2023-05-02T19:20:48.175Z,52.90
2023-05-02T19:25:50.639Z,53.20
2023-05-02T19:30:54.285Z,53.50
2023-05-02T19:35:56.553Z,53.80
2023-05-02T19:40:59.147Z,54.10
2023-05-02T19:46:02.974Z,54.20
2023-05-02T19:51:05.599Z,54.40
2023-05-02T19:56:07.929Z,54.70
2023-05-02T20:01:11.697Z,55.10
2023-05-02T20:06:14.005Z,55.40
2023-05-02T20:11:16.286Z,55.50
2023-05-02T20:16:19.998Z,55.80
2023-05-02T20:21:24.180Z,56.20
2023-05-02T20:26:46.180Z,56.10
2023-05-02T20:31:50.733Z,56.90
2023-05-02T20:36:53.020Z,56.30
2023-05-02T20:41:55.232Z,56.20
2023-05-02T20:46:58.973Z,56.20
2023-05-02T20:52:04.501Z,56.50
2023-05-02T20:57:06.846Z,56.70
2023-05-02T21:02:11.125Z,56.70
2023-05-02T21:07:13.491Z,57.00
2023-05-02T21:12:16.508Z,57.00
2023-05-02T21:17:20.096Z,57.20
2023-05-02T21:22:22.401Z,57.60
2023-05-02T21:27:24.853Z,57.70
2023-05-02T21:32:28.657Z,57.90
2023-05-02T21:37:31.721Z,58.20
2023-05-02T21:42:33.902Z,58.40
2023-05-02T21:47:37.543Z,58.50
2023-05-02T21:52:39.776Z,58.80
2023-05-02T21:57:42.165Z,59.00
2023-05-02T22:02:45.989Z,59.20
2023-05-02T22:07:48.815Z,59.60
2023-05-02T22:12:51.065Z,59.70
2023-05-02T22:17:54.759Z,60.20
2023-05-02T22:22:57.049Z,60.70
2023-05-02T22:27:59.318Z,60.70
2023-05-02T22:33:03.633Z,61.40
2023-05-02T22:38:07.371Z,62.00
2023-05-02T22:43:09.531Z,62.20
2023-05-02T22:48:13.296Z,62.20
2023-05-02T22:53:15.561Z,62.50
2023-05-02T22:58:17.861Z,62.40
2023-05-02T23:03:21.534Z,62.50
2023-05-02T23:08:23.871Z,62.70
2023-05-02T23:13:26.399Z,62.40
2023-05-02T23:18:30.162Z,62.20
2023-05-02T23:23:32.554Z,62.30
2023-05-02T23:28:34.767Z,62.10
2023-05-02T23:33:38.490Z,62.30
2023-05-02T23:38:40.819Z,62.60
2023-05-02T23:43:43.118Z,62.70
2023-05-02T23:48:46.879Z,62.60
2023-05-02T23:53:49.419Z,62.90
2023-05-02T23:58:51.686Z,62.80
